sensor_id;sensor_type;location;lat;lon;timestamp;P1;durP1;ratioP1;P2;durP2;ratioP2
7162;SDS011;3623;47.098;15.446;2023-03-01T00:00:18;23.05;;;15.65;;
7162;SDS011;3623;47.098;15.446;2023-03-01T00:02:46;20.80;;;16.58;;
7162;SDS011;3623;47.098;15.446;2023-03-01T00:05:13;23.38;;;17.52;;
7162;SDS011;3623;47.098;15.446;2023-03-01T00:07:40;21.02;;;15.55;;
7162;SDS011;3623;47.098;15.446;2023-03-01T00:10:09;23.70;;;16.20;;
7162;SDS011;3623;47.098;15.446;2023-03-01T00:12:37;23.08;;;16.00;;
7162;SDS011;3623;47.098;15.446;2023-03-01T00:15:04;23.10;;;15.77;;
7162;SDS011;3623;47.098;15.446;2023-03-01T00:17:32;23.00;;;15.15;;
7162;SDS011;3623;47.098;15.446;2023-03-01T00:19:59;23.85;;;16.23;;
7162;SDS011;3623;47.098;15.446;2023-03-01T00:22:26;28.67;;;17.63;;
7162;SDS011;3623;47.098;15.446;2023-03-01T00:24:54;24.75;;;15.85;;
7162;SDS011;3623;47.098;15.446;2023-03-01T00:27:22;20.90;;;16.65;;
7162;SDS011;3623;47.098;15.446;2023-03-01T00:29:49;22.25;;;15.30;;
7162;SDS011;3623;47.098;15.446;2023-03-01T00:32:17;19.33;;;15.98;;
7162;SDS011;3623;47.098;15.446;2023-03-01T00:34:44;20.63;;;14.82;;
7162;SDS011;3623;47.098;15.446;2023-03-01T00:37:19;19.65;;;15.75;;
7162;SDS011;3623;47.098;15.446;2023-03-01T00:39:46;19.17;;;16.20;;
7162;SDS011;3623;47.098;15.446;2023-03-01T00:42:13;19.90;;;14.82;;
7162;SDS011;3623;47.098;15.446;2023-03-01T00:44:42;18.77;;;14.38;;
7162;SDS011;3623;47.098;15.446;2023-03-01T00:47:09;20.27;;;14.45;;
7162;SDS011;3623;47.098;15.446;2023-03-01T00:49:36;19.33;;;15.13;;
7162;SDS011;3623;47.098;15.446;2023-03-01T00:52:03;21.35;;;15.90;;
7162;SDS011;3623;47.098;15.446;2023-03-01T00:54:30;22.08;;;15.50;;
7162;SDS011;3623;47.098;15.446;2023-03-01T00:56:57;19.67;;;15.65;;
7162;SDS011;3623;47.098;15.446;2023-03-01T00:59:25;29.40;;;16.65;;
7162;SDS011;3623;47.098;15.446;2023-03-01T01:01:53;21.95;;;15.77;;
7162;SDS011;3623;47.098;15.446;2023-03-01T01:04:20;21.63;;;16.48;;
7162;SDS011;3623;47.098;15.446;2023-03-01T01:06:47;22.35;;;15.40;;
7162;SDS011;3623;47.098;15.446;2023-03-01T01:09:16;17.90;;;14.50;;
7162;SDS011;3623;47.098;15.446;2023-03-01T01:11:43;22.33;;;16.25;;
7162;SDS011;3623;47.098;15.446;2023-03-01T01:14:11;21.73;;;15.50;;
7162;SDS011;3623;47.098;15.446;2023-03-01T01:16:39;22.30;;;15.65;;
7162;SDS011;3623;47.098;15.446;2023-03-01T01:19:07;21.90;;;15.70;;
7162;SDS011;3623;47.098;15.446;2023-03-01T01:21:35;19.83;;;14.98;;
7162;SDS011;3623;47.098;15.446;2023-03-01T01:24:02;20.92;;;14.77;;
7162;SDS011;3623;47.098;15.446;2023-03-01T01:26:31;22.70;;;16.85;;
7162;SDS011;3623;47.098;15.446;2023-03-01T01:29:00;19.90;;;15.02;;
7162;SDS011;3623;47.098;15.446;2023-03-01T01:31:29;20.10;;;15.82;;
7162;SDS011;3623;47.098;15.446;2023-03-01T01:33:57;23.17;;;15.55;;
7162;SDS011;3623;47.098;15.446;2023-03-01T01:36:27;24.17;;;16.48;;
7162;SDS011;3623;47.098;15.446;2023-03-01T01:38:55;23.75;;;16.42;;
7162;SDS011;3623;47.098;15.446;2023-03-01T01:41:23;21.55;;;14.40;;
7162;SDS011;3623;47.098;15.446;2023-03-01T01:46:38;18.98;;;14.18;;
7162;SDS011;3623;47.098;15.446;2023-03-01T01:49:10;20.35;;;15.60;;
7162;SDS011;3623;47.098;15.446;2023-03-01T01:51:45;24.45;;;15.73;;
7162;SDS011;3623;47.098;15.446;2023-03-01T01:54:16;23.90;;;15.90;;
7162;SDS011;3623;47.098;15.446;2023-03-01T01:56:47;27.40;;;17.20;;
7162;SDS011;3623;47.098;15.446;2023-03-01T01:59:18;25.08;;;16.30;;
7162;SDS011;3623;47.098;15.446;2023-03-01T02:01:49;25.00;;;16.25;;
7162;SDS011;3623;47.098;15.446;2023-03-01T02:04:17;22.88;;;17.40;;
7162;SDS011;3623;47.098;15.446;2023-03-01T02:06:46;24.95;;;16.90;;
7162;SDS011;3623;47.098;15.446;2023-03-01T02:09:18;21.70;;;15.80;;
7162;SDS011;3623;47.098;15.446;2023-03-01T02:11:48;25.00;;;16.20;;
7162;SDS011;3623;47.098;15.446;2023-03-01T02:14:16;17.90;;;15.02;;
7162;SDS011;3623;47.098;15.446;2023-03-01T02:16:44;22.10;;;15.85;;
7162;SDS011;3623;47.098;15.446;2023-03-01T02:19:13;26.30;;;15.27;;
7162;SDS011;3623;47.098;15.446;2023-03-01T02:21:49;21.42;;;16.25;;
7162;SDS011;3623;47.098;15.446;2023-03-01T02:24:28;22.35;;;16.55;;
7162;SDS011;3623;47.098;15.446;2023-03-01T02:27:02;25.05;;;17.52;;
7162;SDS011;3623;47.098;15.446;2023-03-01T02:29:30;21.40;;;15.25;;
7162;SDS011;3623;47.098;15.446;2023-03-01T02:31:58;20.35;;;15.65;;
7162;SDS011;3623;47.098;15.446;2023-03-01T02:34:29;23.67;;;15.63;;
7162;SDS011;3623;47.098;15.446;2023-03-01T02:36:59;24.42;;;16.90;;
7162;SDS011;3623;47.098;15.446;2023-03-01T02:39:30;25.55;;;17.48;;
7162;SDS011;3623;47.098;15.446;2023-03-01T02:42:00;22.00;;;17.95;;
7162;SDS011;3623;47.098;15.446;2023-03-01T02:44:31;24.70;;;17.33;;
7162;SDS011;3623;47.098;15.446;2023-03-01T02:46:59;25.30;;;16.95;;
7162;SDS011;3623;47.098;15.446;2023-03-01T02:49:30;20.70;;;15.95;;
7162;SDS011;3623;47.098;15.446;2023-03-01T02:52:08;20.77;;;16.42;;
7162;SDS011;3623;47.098;15.446;2023-03-01T02:54:54;21.48;;;15.88;;
7162;SDS011;3623;47.098;15.446;2023-03-01T02:57:25;21.75;;;16.90;;
7162;SDS011;3623;47.098;15.446;2023-03-01T02:59:56;27.15;;;17.02;;
7162;SDS011;3623;47.098;15.446;2023-03-01T03:02:26;22.05;;;14.55;;
7162;SDS011;3623;47.098;15.446;2023-03-01T03:05:06;20.65;;;16.42;;
7162;SDS011;3623;47.098;15.446;2023-03-01T03:07:35;20.85;;;15.48;;
7162;SDS011;3623;47.098;15.446;2023-03-01T03:10:05;24.95;;;14.55;;
7162;SDS011;3623;47.098;15.446;2023-03-01T03:12:36;19.38;;;14.98;;
7162;SDS011;3623;47.098;15.446;2023-03-01T03:15:06;18.75;;;15.18;;
7162;SDS011;3623;47.098;15.446;2023-03-01T03:17:35;15.10;;;12.50;;
7162;SDS011;3623;47.098;15.446;2023-03-01T03:20:03;22.80;;;15.25;;
7162;SDS011;3623;47.098;15.446;2023-03-01T03:22:31;25.48;;;14.52;;
7162;SDS011;3623;47.098;15.446;2023-03-01T03:24:59;21.10;;;15.32;;
7162;SDS011;3623;47.098;15.446;2023-03-01T03:27:28;20.65;;;13.50;;
7162;SDS011;3623;47.098;15.446;2023-03-01T03:29:57;25.15;;;16.45;;
7162;SDS011;3623;47.098;15.446;2023-03-01T03:32:25;21.75;;;16.60;;
7162;SDS011;3623;47.098;15.446;2023-03-01T03:34:52;20.50;;;14.82;;
7162;SDS011;3623;47.098;15.446;2023-03-01T03:37:19;20.38;;;16.33;;
7162;SDS011;3623;47.098;15.446;2023-03-01T03:40:15;25.83;;;16.48;;
7162;SDS011;3623;47.098;15.446;2023-03-01T03:42:42;22.98;;;15.63;;
7162;SDS011;3623;47.098;15.446;2023-03-01T03:45:09;21.20;;;15.23;;
7162;SDS011;3623;47.098;15.446;2023-03-01T03:47:38;22.95;;;16.85;;
7162;SDS011;3623;47.098;15.446;2023-03-01T03:50:05;22.63;;;15.60;;
7162;SDS011;3623;47.098;15.446;2023-03-01T03:52:32;19.95;;;14.05;;
7162;SDS011;3623;47.098;15.446;2023-03-01T03:55:00;21.58;;;14.70;;
7162;SDS011;3623;47.098;15.446;2023-03-01T03:57:27;18.85;;;14.02;;
7162;SDS011;3623;47.098;15.446;2023-03-01T03:59:54;23.08;;;15.35;;
7162;SDS011;3623;47.098;15.446;2023-03-01T04:02:21;21.23;;;15.95;;
7162;SDS011;3623;47.098;15.446;2023-03-01T04:04:49;21.55;;;16.75;;
7162;SDS011;3623;47.098;15.446;2023-03-01T04:07:16;23.05;;;16.35;;
7162;SDS011;3623;47.098;15.446;2023-03-01T04:09:43;26.88;;;18.45;;
7162;SDS011;3623;47.098;15.446;2023-03-01T04:12:10;24.80;;;18.15;;
7162;SDS011;3623;47.098;15.446;2023-03-01T04:14:38;19.50;;;15.93;;
7162;SDS011;3623;47.098;15.446;2023-03-01T04:17:05;27.92;;;18.85;;
7162;SDS011;3623;47.098;15.446;2023-03-01T04:19:32;23.83;;;17.00;;
7162;SDS011;3623;47.098;15.446;2023-03-01T04:22:02;21.73;;;16.60;;
7162;SDS011;3623;47.098;15.446;2023-03-01T04:24:34;25.38;;;18.85;;
7162;SDS011;3623;47.098;15.446;2023-03-01T04:27:02;25.45;;;17.67;;
7162;SDS011;3623;47.098;15.446;2023-03-01T04:29:29;23.55;;;17.33;;
7162;SDS011;3623;47.098;15.446;2023-03-01T04:31:56;20.85;;;16.85;;
7162;SDS011;3623;47.098;15.446;2023-03-01T04:34:24;25.83;;;16.02;;
7162;SDS011;3623;47.098;15.446;2023-03-01T04:36:51;21.20;;;15.55;;
7162;SDS011;3623;47.098;15.446;2023-03-01T04:39:20;18.90;;;14.75;;
7162;SDS011;3623;47.098;15.446;2023-03-01T04:41:47;19.67;;;15.50;;
7162;SDS011;3623;47.098;15.446;2023-03-01T04:44:14;18.90;;;14.68;;
7162;SDS011;3623;47.098;15.446;2023-03-01T04:46:41;21.55;;;16.00;;
7162;SDS011;3623;47.098;15.446;2023-03-01T04:49:08;19.85;;;15.07;;
7162;SDS011;3623;47.098;15.446;2023-03-01T04:51:35;20.45;;;14.98;;
7162;SDS011;3623;47.098;15.446;2023-03-01T04:54:03;23.85;;;15.57;;
7162;SDS011;3623;47.098;15.446;2023-03-01T04:56:35;21.50;;;16.70;;
7162;SDS011;3623;47.098;15.446;2023-03-01T04:59:02;19.88;;;15.65;;
7162;SDS011;3623;47.098;15.446;2023-03-01T05:01:30;24.20;;;16.83;;
7162;SDS011;3623;47.098;15.446;2023-03-01T05:03:57;24.13;;;16.35;;
7162;SDS011;3623;47.098;15.446;2023-03-01T05:06:28;24.13;;;17.95;;
7162;SDS011;3623;47.098;15.446;2023-03-01T05:08:55;26.20;;;16.13;;
7162;SDS011;3623;47.098;15.446;2023-03-01T05:11:22;24.33;;;16.85;;
7162;SDS011;3623;47.098;15.446;2023-03-01T05:13:51;24.65;;;16.20;;
7162;SDS011;3623;47.098;15.446;2023-03-01T05:16:20;22.35;;;15.77;;
7162;SDS011;3623;47.098;15.446;2023-03-01T05:18:47;22.75;;;17.70;;
7162;SDS011;3623;47.098;15.446;2023-03-01T05:21:16;23.80;;;15.93;;
7162;SDS011;3623;47.098;15.446;2023-03-01T05:23:43;19.83;;;15.00;;
7162;SDS011;3623;47.098;15.446;2023-03-01T05:26:12;18.73;;;15.07;;
7162;SDS011;3623;47.098;15.446;2023-03-01T05:28:39;16.75;;;15.02;;
7162;SDS011;3623;47.098;15.446;2023-03-01T05:31:08;23.13;;;17.20;;
7162;SDS011;3623;47.098;15.446;2023-03-01T05:33:35;20.17;;;15.18;;
7162;SDS011;3623;47.098;15.446;2023-03-01T05:36:03;20.00;;;16.08;;
7162;SDS011;3623;47.098;15.446;2023-03-01T05:38:31;25.08;;;20.30;;
7162;SDS011;3623;47.098;15.446;2023-03-01T05:40:58;27.10;;;18.55;;
7162;SDS011;3623;47.098;15.446;2023-03-01T05:43:25;28.90;;;23.58;;
7162;SDS011;3623;47.098;15.446;2023-03-01T05:45:54;24.08;;;17.83;;
7162;SDS011;3623;47.098;15.446;2023-03-01T05:48:26;22.83;;;15.88;;
7162;SDS011;3623;47.098;15.446;2023-03-01T05:50:53;23.33;;;17.00;;
7162;SDS011;3623;47.098;15.446;2023-03-01T05:53:20;20.35;;;16.15;;
7162;SDS011;3623;47.098;15.446;2023-03-01T05:55:47;23.65;;;15.55;;
7162;SDS011;3623;47.098;15.446;2023-03-01T05:58:17;22.27;;;16.35;;
7162;SDS011;3623;47.098;15.446;2023-03-01T06:00:45;21.58;;;15.95;;
7162;SDS011;3623;47.098;15.446;2023-03-01T06:03:14;26.77;;;18.38;;
7162;SDS011;3623;47.098;15.446;2023-03-01T06:05:44;22.63;;;17.45;;
7162;SDS011;3623;47.098;15.446;2023-03-01T06:08:11;25.23;;;18.38;;
7162;SDS011;3623;47.098;15.446;2023-03-01T06:10:39;19.75;;;16.17;;
7162;SDS011;3623;47.098;15.446;2023-03-01T06:13:06;27.25;;;17.25;;
7162;SDS011;3623;47.098;15.446;2023-03-01T06:15:34;27.05;;;18.42;;
7162;SDS011;3623;47.098;15.446;2023-03-01T06:18:01;21.42;;;17.33;;
7162;SDS011;3623;47.098;15.446;2023-03-01T06:20:28;24.58;;;17.63;;
7162;SDS011;3623;47.098;15.446;2023-03-01T06:22:57;27.50;;;18.60;;
7162;SDS011;3623;47.098;15.446;2023-03-01T06:25:25;23.92;;;18.00;;
7162;SDS011;3623;47.098;15.446;2023-03-01T06:27:53;22.08;;;16.50;;
7162;SDS011;3623;47.098;15.446;2023-03-01T06:30:21;21.42;;;16.65;;
7162;SDS011;3623;47.098;15.446;2023-03-01T06:32:49;21.45;;;15.95;;
7162;SDS011;3623;47.098;15.446;2023-03-01T06:35:17;22.65;;;16.52;;
7162;SDS011;3623;47.098;15.446;2023-03-01T06:37:45;24.27;;;16.33;;
7162;SDS011;3623;47.098;15.446;2023-03-01T06:40:15;23.23;;;17.02;;
7162;SDS011;3623;47.098;15.446;2023-03-01T06:42:43;27.67;;;18.05;;
7162;SDS011;3623;47.098;15.446;2023-03-01T06:45:16;23.80;;;16.98;;
7162;SDS011;3623;47.098;15.446;2023-03-01T06:47:44;25.88;;;17.83;;
7162;SDS011;3623;47.098;15.446;2023-03-01T06:50:11;22.88;;;16.17;;
7162;SDS011;3623;47.098;15.446;2023-03-01T06:52:39;23.58;;;18.67;;
7162;SDS011;3623;47.098;15.446;2023-03-01T06:55:06;26.02;;;18.33;;
7162;SDS011;3623;47.098;15.446;2023-03-01T06:57:35;28.67;;;18.45;;
7162;SDS011;3623;47.098;15.446;2023-03-01T07:00:03;24.00;;;15.75;;
7162;SDS011;3623;47.098;15.446;2023-03-01T07:02:31;23.45;;;16.73;;
7162;SDS011;3623;47.098;15.446;2023-03-01T07:04:58;20.50;;;15.45;;
7162;SDS011;3623;47.098;15.446;2023-03-01T07:07:25;24.38;;;17.10;;
7162;SDS011;3623;47.098;15.446;2023-03-01T07:09:52;22.95;;;16.30;;
7162;SDS011;3623;47.098;15.446;2023-03-01T07:12:19;23.20;;;17.75;;
7162;SDS011;3623;47.098;15.446;2023-03-01T07:14:47;22.95;;;16.95;;
7162;SDS011;3623;47.098;15.446;2023-03-01T07:17:14;25.92;;;17.13;;
7162;SDS011;3623;47.098;15.446;2023-03-01T07:19:41;21.23;;;16.48;;
7162;SDS011;3623;47.098;15.446;2023-03-01T07:22:10;21.25;;;15.20;;
7162;SDS011;3623;47.098;15.446;2023-03-01T07:24:37;22.88;;;16.83;;
7162;SDS011;3623;47.098;15.446;2023-03-01T07:27:04;24.48;;;17.80;;
7162;SDS011;3623;47.098;15.446;2023-03-01T07:29:31;20.77;;;16.25;;
7162;SDS011;3623;47.098;15.446;2023-03-01T07:31:59;22.00;;;17.33;;
7162;SDS011;3623;47.098;15.446;2023-03-01T07:34:26;28.08;;;17.15;;
7162;SDS011;3623;47.098;15.446;2023-03-01T07:36:53;23.83;;;18.05;;
7162;SDS011;3623;47.098;15.446;2023-03-01T07:39:20;23.65;;;17.75;;
7162;SDS011;3623;47.098;15.446;2023-03-01T07:41:49;33.72;;;21.63;;
7162;SDS011;3623;47.098;15.446;2023-03-01T07:44:16;27.67;;;22.02;;
7162;SDS011;3623;47.098;15.446;2023-03-01T07:46:43;31.45;;;19.40;;
7162;SDS011;3623;47.098;15.446;2023-03-01T07:49:11;27.80;;;20.00;;
7162;SDS011;3623;47.098;15.446;2023-03-01T07:51:38;31.08;;;20.13;;
7162;SDS011;3623;47.098;15.446;2023-03-01T07:54:07;26.63;;;18.27;;
7162;SDS011;3623;47.098;15.446;2023-03-01T07:56:34;27.23;;;19.70;;
7162;SDS011;3623;47.098;15.446;2023-03-01T07:59:01;25.45;;;18.50;;
7162;SDS011;3623;47.098;15.446;2023-03-01T08:01:28;24.48;;;18.00;;
7162;SDS011;3623;47.098;15.446;2023-03-01T08:03:55;22.40;;;16.35;;
7162;SDS011;3623;47.098;15.446;2023-03-01T08:06:24;25.30;;;18.58;;
7162;SDS011;3623;47.098;15.446;2023-03-01T08:08:51;24.05;;;18.52;;
7162;SDS011;3623;47.098;15.446;2023-03-01T08:11:20;26.77;;;17.83;;
7162;SDS011;3623;47.098;15.446;2023-03-01T08:13:48;27.60;;;20.02;;
7162;SDS011;3623;47.098;15.446;2023-03-01T08:16:15;35.90;;;19.17;;
7162;SDS011;3623;47.098;15.446;2023-03-01T08:18:43;27.83;;;20.33;;
7162;SDS011;3623;47.098;15.446;2023-03-01T08:21:10;25.33;;;20.33;;
7162;SDS011;3623;47.098;15.446;2023-03-01T08:23:40;23.92;;;17.92;;
7162;SDS011;3623;47.098;15.446;2023-03-01T08:26:08;25.77;;;17.48;;
7162;SDS011;3623;47.098;15.446;2023-03-01T08:28:37;20.40;;;15.73;;
7162;SDS011;3623;47.098;15.446;2023-03-01T08:31:12;21.42;;;15.73;;
7162;SDS011;3623;47.098;15.446;2023-03-01T08:33:40;24.27;;;18.45;;
7162;SDS011;3623;47.098;15.446;2023-03-01T08:36:07;20.80;;;17.30;;
7162;SDS011;3623;47.098;15.446;2023-03-01T08:38:34;24.73;;;16.10;;
7162;SDS011;3623;47.098;15.446;2023-03-01T08:41:03;23.70;;;15.80;;
7162;SDS011;3623;47.098;15.446;2023-03-01T08:43:32;24.15;;;16.40;;
7162;SDS011;3623;47.098;15.446;2023-03-01T08:45:59;21.55;;;16.23;;
7162;SDS011;3623;47.098;15.446;2023-03-01T08:48:27;22.90;;;16.70;;
7162;SDS011;3623;47.098;15.446;2023-03-01T08:50:54;21.50;;;14.65;;
7162;SDS011;3623;47.098;15.446;2023-03-01T08:53:21;24.25;;;14.55;;
7162;SDS011;3623;47.098;15.446;2023-03-01T08:55:48;20.23;;;13.75;;
7162;SDS011;3623;47.098;15.446;2023-03-01T08:58:17;17.90;;;15.15;;
7162;SDS011;3623;47.098;15.446;2023-03-01T09:00:44;22.13;;;14.88;;
7162;SDS011;3623;47.098;15.446;2023-03-01T09:03:11;19.23;;;15.52;;
7162;SDS011;3623;47.098;15.446;2023-03-01T09:05:38;22.70;;;15.55;;
7162;SDS011;3623;47.098;15.446;2023-03-01T09:08:05;19.58;;;16.40;;
7162;SDS011;3623;47.098;15.446;2023-03-01T09:10:37;21.13;;;16.80;;
7162;SDS011;3623;47.098;15.446;2023-03-01T09:13:05;22.00;;;15.73;;
7162;SDS011;3623;47.098;15.446;2023-03-01T09:15:33;24.30;;;16.10;;
7162;SDS011;3623;47.098;15.446;2023-03-01T09:18:02;19.15;;;15.13;;
7162;SDS011;3623;47.098;15.446;2023-03-01T09:20:30;18.48;;;14.85;;
7162;SDS011;3623;47.098;15.446;2023-03-01T09:22:58;20.50;;;15.43;;
7162;SDS011;3623;47.098;15.446;2023-03-01T09:25:25;27.13;;;16.52;;
7162;SDS011;3623;47.098;15.446;2023-03-01T09:27:53;21.63;;;15.90;;
7162;SDS011;3623;47.098;15.446;2023-03-01T09:30:21;22.90;;;16.63;;
7162;SDS011;3623;47.098;15.446;2023-03-01T09:32:50;24.52;;;16.50;;
7162;SDS011;3623;47.098;15.446;2023-03-01T09:35:18;22.65;;;16.90;;
7162;SDS011;3623;47.098;15.446;2023-03-01T09:37:45;23.02;;;15.80;;
7162;SDS011;3623;47.098;15.446;2023-03-01T09:40:13;23.25;;;17.83;;
7162;SDS011;3623;47.098;15.446;2023-03-01T09:42:50;22.65;;;18.52;;
7162;SDS011;3623;47.098;15.446;2023-03-01T09:45:24;26.92;;;16.60;;
7162;SDS011;3623;47.098;15.446;2023-03-01T09:47:56;21.27;;;17.63;;
7162;SDS011;3623;47.098;15.446;2023-03-01T09:50:24;19.13;;;15.02;;
7162;SDS011;3623;47.098;15.446;2023-03-01T09:52:59;25.30;;;18.55;;
7162;SDS011;3623;47.098;15.446;2023-03-01T09:55:30;25.42;;;16.42;;
7162;SDS011;3623;47.098;15.446;2023-03-01T09:58:00;23.73;;;18.00;;
7162;SDS011;3623;47.098;15.446;2023-03-01T10:00:41;21.90;;;17.25;;
7162;SDS011;3623;47.098;15.446;2023-03-01T10:03:13;25.60;;;18.00;;
7162;SDS011;3623;47.098;15.446;2023-03-01T10:05:50;24.80;;;17.00;;
7162;SDS011;3623;47.098;15.446;2023-03-01T10:08:36;21.48;;;17.35;;
7162;SDS011;3623;47.098;15.446;2023-03-01T10:11:14;22.15;;;16.88;;
7162;SDS011;3623;47.098;15.446;2023-03-01T10:13:47;22.20;;;15.52;;
7162;SDS011;3623;47.098;15.446;2023-03-01T10:16:21;19.85;;;15.80;;
7162;SDS011;3623;47.098;15.446;2023-03-01T10:18:55;23.10;;;14.77;;
7162;SDS011;3623;47.098;15.446;2023-03-01T10:21:26;25.77;;;16.92;;
7162;SDS011;3623;47.098;15.446;2023-03-01T10:23:57;23.67;;;15.82;;
7162;SDS011;3623;47.098;15.446;2023-03-01T10:29:23;23.33;;;15.73;;
7162;SDS011;3623;47.098;15.446;2023-03-01T10:31:53;22.20;;;16.00;;
7162;SDS011;3623;47.098;15.446;2023-03-01T10:34:27;19.90;;;16.73;;
7162;SDS011;3623;47.098;15.446;2023-03-01T10:36:56;22.27;;;16.30;;
7162;SDS011;3623;47.098;15.446;2023-03-01T10:39:25;24.30;;;16.77;;
7162;SDS011;3623;47.098;15.446;2023-03-01T10:41:57;23.75;;;16.70;;
7162;SDS011;3623;47.098;15.446;2023-03-01T10:44:35;27.25;;;17.65;;
7162;SDS011;3623;47.098;15.446;2023-03-01T10:47:04;22.25;;;16.73;;
7162;SDS011;3623;47.098;15.446;2023-03-01T10:49:39;21.75;;;16.20;;
7162;SDS011;3623;47.098;15.446;2023-03-01T10:52:29;27.08;;;16.38;;
7162;SDS011;3623;47.098;15.446;2023-03-01T10:54:59;17.63;;;15.57;;
7162;SDS011;3623;47.098;15.446;2023-03-01T10:57:31;26.25;;;18.80;;
7162;SDS011;3623;47.098;15.446;2023-03-01T11:03:01;27.77;;;18.70;;
7162;SDS011;3623;47.098;15.446;2023-03-01T11:05:31;22.02;;;17.05;;
7162;SDS011;3623;47.098;15.446;2023-03-01T11:08:00;20.98;;;15.52;;
7162;SDS011;3623;47.098;15.446;2023-03-01T11:10:29;24.38;;;17.40;;
7162;SDS011;3623;47.098;15.446;2023-03-01T11:13:08;24.70;;;17.92;;
7162;SDS011;3623;47.098;15.446;2023-03-01T11:15:40;22.27;;;17.05;;
7162;SDS011;3623;47.098;15.446;2023-03-01T11:18:17;24.13;;;18.02;;
7162;SDS011;3623;47.098;15.446;2023-03-01T11:20:48;25.85;;;17.33;;
7162;SDS011;3623;47.098;15.446;2023-03-01T11:23:17;23.25;;;17.40;;
7162;SDS011;3623;47.098;15.446;2023-03-01T11:25:47;30.73;;;18.15;;
7162;SDS011;3623;47.098;15.446;2023-03-01T11:28:21;25.70;;;17.92;;
7162;SDS011;3623;47.098;15.446;2023-03-01T11:30:51;24.00;;;17.95;;
7162;SDS011;3623;47.098;15.446;2023-03-01T11:33:24;27.52;;;18.17;;
7162;SDS011;3623;47.098;15.446;2023-03-01T11:36:03;33.95;;;20.20;;
7162;SDS011;3623;47.098;15.446;2023-03-01T11:38:36;26.80;;;17.05;;
7162;SDS011;3623;47.098;15.446;2023-03-01T11:41:06;28.83;;;16.83;;
7162;SDS011;3623;47.098;15.446;2023-03-01T11:43:36;25.70;;;17.13;;
7162;SDS011;3623;47.098;15.446;2023-03-01T11:49:09;26.13;;;17.52;;
7162;SDS011;3623;47.098;15.446;2023-03-01T11:51:59;25.13;;;18.40;;
7162;SDS011;3623;47.098;15.446;2023-03-01T11:54:37;24.67;;;17.35;;
7162;SDS011;3623;47.098;15.446;2023-03-01T11:57:17;20.50;;;16.50;;
7162;SDS011;3623;47.098;15.446;2023-03-01T12:00:06;26.42;;;17.83;;
7162;SDS011;3623;47.098;15.446;2023-03-01T12:05:48;22.73;;;17.38;;
7162;SDS011;3623;47.098;15.446;2023-03-01T12:08:36;23.08;;;17.30;;
7162;SDS011;3623;47.098;15.446;2023-03-01T12:11:11;19.35;;;15.35;;
7162;SDS011;3623;47.098;15.446;2023-03-01T12:17:07;24.00;;;16.60;;
7162;SDS011;3623;47.098;15.446;2023-03-01T12:20:02;23.27;;;17.92;;
7162;SDS011;3623;47.098;15.446;2023-03-01T12:22:42;21.75;;;17.42;;
7162;SDS011;3623;47.098;15.446;2023-03-01T12:25:24;24.20;;;17.17;;
7162;SDS011;3623;47.098;15.446;2023-03-01T12:28:04;21.48;;;16.48;;
7162;SDS011;3623;47.098;15.446;2023-03-01T12:30:57;24.35;;;16.27;;
7162;SDS011;3623;47.098;15.446;2023-03-01T12:33:41;23.35;;;18.10;;
7162;SDS011;3623;47.098;15.446;2023-03-01T12:36:33;26.67;;;16.40;;
7162;SDS011;3623;47.098;15.446;2023-03-01T12:39:24;24.88;;;14.90;;
7162;SDS011;3623;47.098;15.446;2023-03-01T12:42:03;27.65;;;16.15;;
7162;SDS011;3623;47.098;15.446;2023-03-01T12:44:41;22.15;;;15.35;;
7162;SDS011;3623;47.098;15.446;2023-03-01T12:47:25;23.67;;;15.45;;
7162;SDS011;3623;47.098;15.446;2023-03-01T12:50:02;24.08;;;15.73;;
7162;SDS011;3623;47.098;15.446;2023-03-01T12:52:37;22.27;;;16.15;;
7162;SDS011;3623;47.098;15.446;2023-03-01T12:55:15;23.10;;;16.27;;
7162;SDS011;3623;47.098;15.446;2023-03-01T12:57:53;25.33;;;14.48;;
7162;SDS011;3623;47.098;15.446;2023-03-01T13:00:27;21.27;;;15.35;;
7162;SDS011;3623;47.098;15.446;2023-03-01T13:03:00;20.27;;;14.35;;
7162;SDS011;3623;47.098;15.446;2023-03-01T13:05:37;23.45;;;14.95;;
7162;SDS011;3623;47.098;15.446;2023-03-01T13:08:11;30.33;;;15.50;;
7162;SDS011;3623;47.098;15.446;2023-03-01T13:10:43;19.27;;;15.43;;
7162;SDS011;3623;47.098;15.446;2023-03-01T13:13:20;23.63;;;15.77;;
7162;SDS011;3623;47.098;15.446;2023-03-01T13:15:48;28.23;;;14.55;;
7162;SDS011;3623;47.098;15.446;2023-03-01T13:18:27;20.10;;;14.50;;
7162;SDS011;3623;47.098;15.446;2023-03-01T13:20:59;16.67;;;13.93;;
7162;SDS011;3623;47.098;15.446;2023-03-01T13:23:30;18.10;;;14.18;;
7162;SDS011;3623;47.098;15.446;2023-03-01T13:26:03;19.23;;;13.35;;
7162;SDS011;3623;47.098;15.446;2023-03-01T13:34:42;17.25;;;13.20;;
7162;SDS011;3623;47.098;15.446;2023-03-01T13:37:38;17.33;;;13.65;;
7162;SDS011;3623;47.098;15.446;2023-03-01T13:43:27;23.27;;;13.18;;
7162;SDS011;3623;47.098;15.446;2023-03-01T13:45:58;15.70;;;11.73;;
7162;SDS011;3623;47.098;15.446;2023-03-01T13:48:27;16.58;;;11.95;;
7162;SDS011;3623;47.098;15.446;2023-03-01T13:50:58;17.55;;;12.32;;
7162;SDS011;3623;47.098;15.446;2023-03-01T13:53:28;20.52;;;12.57;;
7162;SDS011;3623;47.098;15.446;2023-03-01T13:55:58;16.40;;;13.02;;
7162;SDS011;3623;47.098;15.446;2023-03-01T13:58:29;16.10;;;13.40;;
7162;SDS011;3623;47.098;15.446;2023-03-01T14:00:59;19.02;;;12.90;;
7162;SDS011;3623;47.098;15.446;2023-03-01T14:03:28;20.25;;;13.45;;
7162;SDS011;3623;47.098;15.446;2023-03-01T14:05:58;14.20;;;11.43;;
7162;SDS011;3623;47.098;15.446;2023-03-01T14:08:27;18.30;;;12.85;;
7162;SDS011;3623;47.098;15.446;2023-03-01T14:11:02;19.25;;;13.68;;
7162;SDS011;3623;47.098;15.446;2023-03-01T14:13:54;22.35;;;13.60;;
7162;SDS011;3623;47.098;15.446;2023-03-01T14:16:35;20.10;;;12.35;;
7162;SDS011;3623;47.098;15.446;2023-03-01T14:19:12;17.00;;;12.55;;
7162;SDS011;3623;47.098;15.446;2023-03-01T14:21:44;21.27;;;13.60;;
7162;SDS011;3623;47.098;15.446;2023-03-01T14:24:16;15.52;;;12.57;;
7162;SDS011;3623;47.098;15.446;2023-03-01T14:26:45;17.75;;;13.77;;
7162;SDS011;3623;47.098;15.446;2023-03-01T14:29:25;18.98;;;13.10;;
7162;SDS011;3623;47.098;15.446;2023-03-01T14:31:54;17.45;;;11.50;;
7162;SDS011;3623;47.098;15.446;2023-03-01T14:34:22;16.08;;;11.23;;
7162;SDS011;3623;47.098;15.446;2023-03-01T14:36:50;16.35;;;11.10;;
7162;SDS011;3623;47.098;15.446;2023-03-01T14:39:18;15.13;;;12.00;;
7162;SDS011;3623;47.098;15.446;2023-03-01T14:41:46;18.95;;;14.00;;
7162;SDS011;3623;47.098;15.446;2023-03-01T14:44:15;15.05;;;12.25;;
7162;SDS011;3623;47.098;15.446;2023-03-01T14:46:51;21.83;;;12.32;;
7162;SDS011;3623;47.098;15.446;2023-03-01T14:49:22;18.35;;;12.32;;
7162;SDS011;3623;47.098;15.446;2023-03-01T14:51:52;13.90;;;11.10;;
7162;SDS011;3623;47.098;15.446;2023-03-01T14:54:24;17.52;;;12.15;;
7162;SDS011;3623;47.098;15.446;2023-03-01T14:56:54;20.90;;;13.68;;
7162;SDS011;3623;47.098;15.446;2023-03-01T14:59:24;15.10;;;11.27;;
7162;SDS011;3623;47.098;15.446;2023-03-01T15:01:53;17.08;;;11.07;;
7162;SDS011;3623;47.098;15.446;2023-03-01T15:04:24;17.02;;;11.18;;
7162;SDS011;3623;47.098;15.446;2023-03-01T15:06:53;15.75;;;11.52;;
7162;SDS011;3623;47.098;15.446;2023-03-01T15:09:30;17.48;;;12.20;;
7162;SDS011;3623;47.098;15.446;2023-03-01T15:12:00;17.83;;;12.13;;
7162;SDS011;3623;47.098;15.446;2023-03-01T15:14:52;15.50;;;11.38;;
7162;SDS011;3623;47.098;15.446;2023-03-01T15:17:20;15.15;;;11.93;;
7162;SDS011;3623;47.098;15.446;2023-03-01T15:19:54;13.57;;;9.75;;